Time;durP1;ratioP1;P1;durP2;ratioP2;P2;SDS_P1;SDS_P2;PMS_P1;PMS_P2;Temp;Humidity;BMP_temperature;BMP_pressure;BME280_temperature;BME280_humidity;BME280_pressure;Samples;Min_cycle;Max_cycle;Signal;HPM_P1;HPM_P2
2021/08/17 00:01:36;;;;;;;8.45;5.80;;;13.90;99.90;;;;;;5071805;28;20110;-72
2021/08/17 00:04:02;;;;;;;8.85;5.65;;;13.80;99.90;;;;;;5071626;28;20375;-71
2021/08/17 00:06:28;;;;;;;9.48;6.32;;;13.70;99.90;;;;;;5090826;22;20164;-74
2021/08/17 00:08:53;;;;;;;7.85;6.03;;;13.60;99.90;;;;;;5030837;28;20021;-74
2021/08/17 00:11:19;;;;;;;8.82;6.03;;;13.80;99.90;;;;;;5030787;28;20103;-73
2021/08/17 00:13:47;;;;;;;7.47;5.25;;;13.70;99.90;;;;;;5030860;28;20438;-73
2021/08/17 00:16:13;;;;;;;9.82;5.93;;;13.60;99.90;;;;;;5030385;28;20029;-73
2021/08/17 00:18:39;;;;;;;7.57;5.97;;;13.60;99.90;;;;;;5030794;28;20037;-73
2021/08/17 00:21:05;;;;;;;9.93;6.55;;;13.50;99.90;;;;;;5031016;28;20115;-74
2021/08/17 00:23:30;;;;;;;9.20;6.15;;;13.40;99.90;;;;;;5030786;28;20084;-74
2021/08/17 00:25:56;;;;;;;10.23;6.68;;;13.30;99.90;;;;;;5029950;28;20029;-74
2021/08/17 00:28:22;;;;;;;8.63;6.60;;;13.40;99.90;;;;;;5032909;28;20468;-74
2021/08/17 00:30:48;;;;;;;9.18;6.90;;;13.40;99.90;;;;;;5044567;28;20036;-73
2021/08/17 00:33:13;;;;;;;9.25;6.50;;;13.40;99.90;;;;;;5050484;28;20124;-73
2021/08/17 00:35:39;;;;;;;9.13;6.05;;;13.50;99.90;;;;;;5049706;28;20032;-73
2021/08/17 00:38:05;;;;;;;8.13;6.15;;;13.40;99.90;;;;;;5050585;28;20025;-74
2021/08/17 00:40:33;;;;;;;8.05;5.70;;;13.20;99.90;;;;;;5048858;28;20394;-74
2021/08/17 00:42:59;;;;;;;8.57;5.05;;;13.10;99.90;;;;;;5050267;28;20021;-73
2021/08/17 00:45:26;;;;;;;11.15;6.60;;;13.10;99.90;;;;;;5049701;28;20032;-74
2021/08/17 00:47:56;;;;;;;7.80;5.28;;;13.20;99.90;;;;;;5050442;28;20075;-74
2021/08/17 00:50:27;;;;;;;7.43;5.15;;;13.10;99.90;;;;;;5050284;28;20025;-73
2021/08/17 00:52:54;;;;;;;10.52;5.25;;;12.90;99.90;;;;;;5050156;28;20029;-74
2021/08/17 00:55:21;;;;;;;6.72;4.35;;;12.80;99.90;;;;;;5049415;28;20040;-73
2021/08/17 00:57:47;;;;;;;7.28;5.00;;;12.60;99.90;;;;;;5050211;28;20071;-74
2021/08/17 01:00:14;;;;;;;8.48;4.72;;;12.60;99.90;;;;;;5051190;28;20029;-74
2021/08/17 01:02:41;;;;;;;8.50;5.15;;;12.70;99.90;;;;;;5054398;28;20029;-73
2021/08/17 01:05:09;;;;;;;6.13;4.50;;;12.70;99.90;;;;;;5052342;28;20092;-74
2021/08/17 01:07:35;;;;;;;5.55;4.55;;;12.70;99.90;;;;;;5054368;28;20029;-73
2021/08/17 01:10:00;;;;;;;6.72;4.75;;;12.60;99.90;;;;;;5054078;28;20036;-74
2021/08/17 01:12:26;;;;;;;10.07;5.57;;;12.80;99.90;;;;;;5054117;28;20029;-73
2021/08/17 01:14:52;;;;;;;9.73;5.50;;;12.80;99.90;;;;;;5053429;28;20036;-74
2021/08/17 01:17:19;;;;;;;16.17;6.65;;;12.90;99.90;;;;;;5054207;28;20028;-74
2021/08/17 01:19:45;;;;;;;9.82;5.28;;;12.90;99.90;;;;;;5053675;28;20029;-73
2021/08/17 01:22:12;;;;;;;10.93;5.63;;;12.80;99.90;;;;;;5054295;28;20056;-73
2021/08/17 01:24:38;;;;;;;11.98;5.30;;;12.80;99.90;;;;;;5053599;28;20025;-74
2021/08/17 01:27:04;;;;;;;7.90;5.53;;;12.60;99.90;;;;;;5032290;28;20028;-73
2021/08/17 01:29:29;;;;;;;8.93;5.68;;;12.60;99.90;;;;;;5016413;28;20033;-74
2021/08/17 01:31:57;;;;;;;8.13;5.55;;;12.70;99.90;;;;;;5016261;28;20021;-74
2021/08/17 01:34:23;;;;;;;9.10;5.15;;;12.70;99.90;;;;;;5033289;28;20139;-74
2021/08/17 01:36:50;;;;;;;10.10;5.63;;;12.60;99.90;;;;;;5033677;28;20060;-73
2021/08/17 01:39:16;;;;;;;8.90;5.85;;;12.60;99.90;;;;;;5033570;28;20025;-74
2021/08/17 01:41:42;;;;;;;16.08;6.18;;;12.50;99.90;;;;;;5034019;28;20036;-74
2021/08/17 01:44:15;;;;;;;14.85;6.25;;;12.50;99.90;;;;;;5033907;28;20661;-74
2021/08/17 01:46:44;;;;;;;13.15;5.72;;;12.50;99.90;;;;;;5033463;28;20033;-74
2021/08/17 01:49:11;;;;;;;12.35;6.63;;;12.40;99.90;;;;;;5033626;28;20028;-74
2021/08/17 01:51:37;;;;;;;16.70;7.20;;;12.40;99.90;;;;;;5034641;28;20590;-74
2021/08/17 01:54:04;;;;;;;14.63;6.30;;;12.20;99.90;;;;;;5034466;28;20030;-74
2021/08/17 01:56:30;;;;;;;18.77;7.65;;;12.20;99.90;;;;;;5033642;28;20064;-74
2021/08/17 01:58:56;;;;;;;15.32;6.43;;;12.10;99.90;;;;;;5053199;28;20036;-73
2021/08/17 02:01:22;;;;;;;18.33;6.80;;;12.00;99.90;;;;;;5054389;28;20071;-73
2021/08/17 02:03:47;;;;;;;12.40;6.90;;;11.90;99.90;;;;;;5054328;28;20458;-73
2021/08/17 02:06:14;;;;;;;13.85;7.03;;;11.80;99.90;;;;;;5053695;28;20033;-74
2021/08/17 02:08:40;;;;;;;17.80;7.18;;;11.80;99.90;;;;;;5054311;28;20033;-74
2021/08/17 02:11:05;;;;;;;12.63;6.38;;;11.70;99.90;;;;;;5053638;28;20025;-73
2021/08/17 02:13:31;;;;;;;14.23;7.38;;;11.70;99.90;;;;;;5053569;28;20553;-74
2021/08/17 02:15:59;;;;;;;13.90;7.30;;;11.60;99.90;;;;;;5053492;28;20025;-74
2021/08/17 02:18:25;;;;;;;11.80;6.40;;;11.60;99.90;;;;;;5054077;28;20124;-74
2021/08/17 02:20:51;;;;;;;17.85;7.63;;;11.60;99.90;;;;;;5053524;28;20762;-74
2021/08/17 02:23:16;;;;;;;14.77;7.18;;;11.50;99.90;;;;;;5053703;28;20028;-74
2021/08/17 02:25:42;;;;;;;9.40;5.63;;;11.50;99.90;;;;;;5035115;28;20021;-74
2021/08/17 02:28:07;;;;;;;14.90;6.78;;;11.50;99.90;;;;;;5040902;28;20434;-74
2021/08/17 02:30:33;;;;;;;11.32;6.28;;;11.50;99.90;;;;;;5033136;28;20030;-75
2021/08/17 02:32:59;;;;;;;16.02;6.72;;;11.40;99.90;;;;;;5032998;28;20030;-73
2021/08/17 02:35:24;;;;;;;13.48;6.43;;;11.40;99.90;;;;;;5014307;28;20033;-74
2021/08/17 02:37:50;;;;;;;10.85;6.50;;;11.30;99.90;;;;;;5032986;28;20025;-73
2021/08/17 02:40:16;;;;;;;13.85;6.68;;;11.30;99.90;;;;;;5032673;28;20033;-74
2021/08/17 02:42:41;;;;;;;11.75;6.82;;;11.20;99.90;;;;;;5032742;28;20037;-74
2021/08/17 02:45:07;;;;;;;14.80;7.55;;;11.20;99.90;;;;;;5032131;28;20018;-74
2021/08/17 02:47:34;;;;;;;14.77;6.30;;;11.20;99.90;;;;;;5032763;28;20157;-74
2021/08/17 02:50:00;;;;;;;11.18;6.72;;;11.20;99.90;;;;;;5032465;28;20563;-74
2021/08/17 02:52:25;;;;;;;12.52;7.07;;;11.10;99.90;;;;;;5033527;28;20036;-74
2021/08/17 02:54:51;;;;;;;15.60;6.97;;;11.10;99.90;;;;;;5032904;28;20028;-74
2021/08/17 02:57:18;;;;;;;19.70;6.97;;;11.20;99.90;;;;;;5038935;28;20368;-75
2021/08/17 02:59:44;;;;;;;13.55;6.38;;;11.10;99.90;;;;;;5034930;28;20032;-74
2021/08/17 03:02:10;;;;;;;14.05;6.85;;;11.10;99.90;;;;;;5052618;28;20031;-74
2021/08/17 03:04:36;;;;;;;16.92;7.70;;;11.10;99.90;;;;;;5051353;28;20017;-74
2021/08/17 03:07:03;;;;;;;17.73;8.20;;;11.00;99.90;;;;;;5052599;28;20071;-75
2021/08/17 03:09:29;;;;;;;14.63;7.60;;;11.00;99.90;;;;;;5053407;28;20021;-74
2021/08/17 03:11:54;;;;;;;20.45;8.82;;;10.90;99.90;;;;;;5053026;28;20051;-74
2021/08/17 03:14:20;;;;;;;22.00;8.25;;;10.80;99.90;;;;;;5053305;28;20028;-74
2021/08/17 03:16:46;;;;;;;16.77;8.23;;;10.80;99.90;;;;;;5053072;28;20039;-74
2021/08/17 03:19:11;;;;;;;22.98;8.80;;;10.80;99.90;;;;;;5052082;28;20025;-74
2021/08/17 03:21:37;;;;;;;15.40;7.57;;;10.80;99.90;;;;;;5051878;28;20021;-74
2021/08/17 03:24:03;;;;;;;14.00;7.72;;;10.80;99.90;;;;;;5033767;28;20360;-74
2021/08/17 03:26:28;;;;;;;16.73;8.38;;;10.80;99.90;;;;;;5051111;28;20040;-73
2021/08/17 03:28:54;;;;;;;13.15;7.53;;;10.70;99.90;;;;;;5032700;28;20026;-73
2021/08/17 03:31:20;;;;;;;9.88;6.20;;;10.60;99.90;;;;;;5031630;28;20116;-73
2021/08/17 03:33:45;;;;;;;13.70;7.15;;;10.60;99.90;;;;;;5031825;28;20064;-73
2021/08/17 03:36:11;;;;;;;14.02;6.72;;;10.60;99.90;;;;;;5030739;28;20036;-74
2021/08/17 03:38:37;;;;;;;20.80;8.20;;;10.60;99.90;;;;;;5013771;28;20075;-74
2021/08/17 03:41:03;;;;;;;19.73;7.90;;;10.60;99.90;;;;;;5031557;28;20410;-74
2021/08/17 03:43:30;;;;;;;14.45;7.47;;;10.60;99.90;;;;;;5031759;28;20033;-73
2021/08/17 03:45:56;;;;;;;20.40;8.73;;;10.50;99.90;;;;;;5030916;28;20025;-74
2021/08/17 03:48:22;;;;;;;22.75;8.63;;;10.50;99.90;;;;;;5031379;28;20106;-74
2021/08/17 03:50:48;;;;;;;21.00;7.95;;;10.50;99.90;;;;;;5031420;28;20044;-74
2021/08/17 03:53:14;;;;;;;23.08;8.95;;;10.50;99.90;;;;;;5033976;28;20037;-73
2021/08/17 03:55:40;;;;;;;21.83;8.60;;;10.40;99.90;;;;;;5035998;28;20032;-73
2021/08/17 03:58:05;;;;;;;26.45;9.32;;;10.30;99.90;;;;;;5034412;28;20034;-75
2021/08/17 04:00:32;;;;;;;22.83;9.15;;;10.40;99.90;;;;;;5015497;28;20423;-73
2021/08/17 04:02:59;;;;;;;24.85;9.38;;;10.40;99.90;;;;;;5031252;28;20017;-74
2021/08/17 04:05:25;;;;;;;24.13;8.27;;;10.40;99.90;;;;;;5030875;28;20049;-73
2021/08/17 04:07:52;;;;;;;22.42;8.55;;;10.40;99.90;;;;;;5032195;28;20025;-73
2021/08/17 04:10:17;;;;;;;15.27;7.40;;;10.50;99.90;;;;;;5014545;28;20029;-73
2021/08/17 04:12:43;;;;;;;14.05;7.40;;;10.50;99.90;;;;;;5031884;28;20043;-73
2021/08/17 04:15:09;;;;;;;15.98;8.10;;;10.40;99.90;;;;;;5031498;28;20783;-73
2021/08/17 04:17:37;;;;;;;16.63;6.97;;;10.40;99.90;;;;;;5014145;28;20022;-74
2021/08/17 04:20:04;;;;;;;14.38;6.68;;;10.40;99.90;;;;;;5029834;28;20050;-73
2021/08/17 04:22:30;;;;;;;17.58;7.63;;;10.40;99.90;;;;;;5024395;28;20025;-72
2021/08/17 04:24:55;;;;;;;16.50;7.72;;;10.40;99.90;;;;;;5031104;28;20127;-72
2021/08/17 04:27:21;;;;;;;20.60;7.47;;;10.40;99.90;;;;;;5037652;28;20028;-73
2021/08/17 04:29:48;;;;;;;23.77;7.97;;;10.50;99.90;;;;;;5033447;28;20043;-73
2021/08/17 04:32:13;;;;;;;18.05;8.48;;;10.50;99.90;;;;;;5050952;28;20379;-72
2021/08/17 04:34:39;;;;;;;20.75;8.10;;;10.50;99.90;;;;;;5049681;28;20017;-73
2021/08/17 04:37:05;;;;;;;14.73;7.68;;;10.40;99.90;;;;;;5051384;28;20498;-73
2021/08/17 04:39:31;;;;;;;21.42;8.32;;;10.30;99.90;;;;;;5042138;28;20104;-72
2021/08/17 04:41:57;;;;;;;22.75;8.52;;;10.30;99.90;;;;;;5031100;28;20033;-73
2021/08/17 04:44:22;;;;;;;19.35;8.77;;;10.40;99.90;;;;;;5030820;28;20025;-72
2021/08/17 04:46:48;;;;;;;27.25;9.32;;;10.40;99.90;;;;;;5043370;28;20383;-72
2021/08/17 04:49:14;;;;;;;23.88;9.25;;;10.30;99.90;;;;;;5050767;28;20487;-73
2021/08/17 04:51:40;;;;;;;19.83;8.80;;;10.40;99.90;;;;;;5050775;28;20020;-72
2021/08/17 04:54:05;;;;;;;21.08;8.63;;;10.40;99.90;;;;;;5051130;28;20540;-73
2021/08/17 04:56:31;;;;;;;18.88;8.65;;;10.40;99.90;;;;;;5032404;28;20021;-73
2021/08/17 04:58:57;;;;;;;20.30;9.77;;;10.40;99.90;;;;;;5050779;28;20422;-72
2021/08/17 05:01:23;;;;;;;21.00;8.73;;;10.50;99.90;;;;;;5050687;28;20446;-72
2021/08/17 05:03:48;;;;;;;24.52;9.18;;;10.50;99.90;;;;;;5032728;28;20391;-72
2021/08/17 05:06:14;;;;;;;24.15;9.05;;;10.50;99.90;;;;;;5048949;28;20117;-72
2021/08/17 05:08:40;;;;;;;18.65;7.88;;;10.60;99.90;;;;;;5049583;28;20025;-73
2021/08/17 05:11:05;;;;;;;20.50;8.63;;;10.50;99.90;;;;;;5051178;28;20028;-73
2021/08/17 05:13:31;;;;;;;19.63;8.02;;;10.50;99.90;;;;;;5050548;28;20033;-73
2021/08/17 05:15:57;;;;;;;18.65;8.55;;;10.60;99.90;;;;;;5041706;28;20068;-72
2021/08/17 05:18:22;;;;;;;22.63;9.77;;;10.70;99.90;;;;;;5031062;28;20514;-72
2021/08/17 05:20:48;;;;;;;20.80;9.32;;;10.70;99.90;;;;;;5030528;28;20095;-72
2021/08/17 05:23:14;;;;;;;19.02;8.38;;;10.70;99.90;;;;;;5030601;28;20022;-72
2021/08/17 05:25:40;;;;;;;15.63;9.50;;;10.70;99.90;;;;;;5029632;28;20147;-72
2021/08/17 05:28:06;;;;;;;18.92;10.45;;;10.80;99.90;;;;;;5048032;28;20075;-72
2021/08/17 05:30:31;;;;;;;16.27;8.50;;;11.30;99.90;;;;;;5050483;28;20436;-72
2021/08/17 05:32:57;;;;;;;14.60;7.97;;;11.30;99.90;;;;;;5050226;28;20037;-73
2021/08/17 05:35:22;;;;;;;12.60;7.47;;;11.60;99.90;;;;;;5048922;28;20033;-73
2021/08/17 05:37:48;;;;;;;11.27;7.07;;;11.70;99.90;;;;;;5050901;28;20036;-73
2021/08/17 05:40:15;;;;;;;15.95;8.07;;;11.70;99.90;;;;;;5047670;28;20048;-70
2021/08/17 05:42:41;;;;;;;15.90;8.13;;;11.70;99.90;;;;;;5012435;28;20026;-70
2021/08/17 05:45:08;;;;;;;13.68;6.95;;;11.60;99.90;;;;;;5038196;28;20079;-71
2021/08/17 05:47:34;;;;;;;9.93;6.75;;;11.50;99.90;;;;;;5053871;28;20405;-71
2021/08/17 05:50:00;;;;;;;11.68;6.75;;;11.30;99.90;;;;;;5054200;28;20032;-72
2021/08/17 05:52:25;;;;;;;12.65;6.30;;;11.20;99.90;;;;;;5036160;28;20148;-72
2021/08/17 05:54:54;;;;;;;11.75;6.88;;;11.20;99.90;;;;;;5042672;28;20029;-71
2021/08/17 05:57:20;;;;;;;11.43;7.15;;;11.10;99.90;;;;;;5034368;28;20091;-71
2021/08/17 05:59:45;;;;;;;12.98;7.00;;;11.20;99.90;;;;;;5016245;28;20034;-71
2021/08/17 06:02:11;;;;;;;12.15;6.88;;;11.40;99.90;;;;;;5033973;28;20021;-72
2021/08/17 06:04:36;;;;;;;13.60;7.32;;;11.40;99.90;;;;;;5033924;28;20026;-72
2021/08/17 06:07:02;;;;;;;12.48;6.97;;;11.50;99.90;;;;;;5034339;28;20025;-72
2021/08/17 06:09:28;;;;;;;11.07;5.97;;;11.40;99.90;;;;;;5034336;28;20018;-71
2021/08/17 06:11:57;;;;;;;10.27;6.10;;;11.50;99.90;;;;;;5034377;28;20379;-72
2021/08/17 06:14:23;;;;;;;10.73;6.22;;;11.50;99.90;;;;;;5118179;22;20031;-71
2021/08/17 06:16:49;;;;;;;13.65;5.53;;;11.80;99.90;;;;;;5045060;28;20032;-71
2021/08/17 06:19:14;;;;;;;8.98;5.68;;;12.00;99.90;;;;;;5049505;28;20021;-71
2021/08/17 06:21:40;;;;;;;8.70;5.75;;;12.10;99.90;;;;;;5050776;28;20531;-71
2021/08/17 06:24:06;;;;;;;10.65;5.70;;;12.00;99.90;;;;;;5032842;28;20057;-72
2021/08/17 06:26:33;;;;;;;10.77;5.57;;;12.20;99.90;;;;;;5020628;28;20093;-73
2021/08/17 06:28:59;;;;;;;8.82;4.93;;;12.10;99.90;;;;;;5033820;28;20029;-73
2021/08/17 06:31:24;;;;;;;9.52;5.25;;;12.10;99.90;;;;;;5033766;28;20073;-71
2021/08/17 06:33:52;;;;;;;8.80;5.05;;;12.00;99.90;;;;;;5029737;28;20032;-71
2021/08/17 06:36:18;;;;;;;10.75;5.32;;;12.00;99.90;;;;;;5011621;28;20080;-72
2021/08/17 06:38:44;;;;;;;7.10;4.75;;;12.30;99.90;;;;;;5017590;28;20037;-72
2021/08/17 06:41:10;;;;;;;9.73;5.00;;;12.20;99.90;;;;;;5013743;28;20448;-72
2021/08/17 06:43:36;;;;;;;10.35;5.35;;;12.40;99.90;;;;;;5013030;28;20088;-71
2021/08/17 06:46:02;;;;;;;9.85;4.85;;;12.30;99.90;;;;;;5016462;28;20096;-71
2021/08/17 06:48:28;;;;;;;11.43;5.60;;;12.30;99.90;;;;;;5032430;28;20040;-71
2021/08/17 06:50:54;;;;;;;12.13;4.95;;;12.40;99.90;;;;;;5032790;28;20041;-73
2021/08/17 06:53:19;;;;;;;8.95;5.20;;;12.40;99.90;;;;;;5032995;28;20533;-71
2021/08/17 06:55:45;;;;;;;10.48;5.18;;;12.60;99.90;;;;;;5032289;28;20038;-71
2021/08/17 06:58:14;;;;;;;10.75;5.72;;;12.60;99.90;;;;;;5032081;28;20109;-73
2021/08/17 07:00:45;;;;;;;11.63;5.50;;;12.70;99.90;;;;;;5032913;28;20025;-73
2021/08/17 07:03:12;;;;;;;8.15;5.55;;;13.00;99.90;;;;;;5032931;28;20024;-72
2021/08/17 07:05:43;;;;;;;8.38;5.07;;;12.90;99.90;;;;;;5032458;28;20372;-72
2021/08/17 07:08:10;;;;;;;12.00;5.13;;;13.00;99.90;;;;;;5032961;28;20021;-72
2021/08/17 07:10:37;;;;;;;10.43;5.50;;;13.20;99.90;;;;;;5032333;28;20030;-72
2021/08/17 07:13:03;;;;;;;13.40;5.18;;;13.30;99.90;;;;;;5029637;28;20040;-72
2021/08/17 07:15:29;;;;;;;12.50;5.72;;;13.10;99.90;;;;;;5022435;28;20044;-72
2021/08/17 07:17:55;;;;;;;10.90;5.55;;;13.30;99.90;;;;;;5032556;28;20030;-72
2021/08/17 07:20:21;;;;;;;11.63;6.40;;;13.40;99.90;;;;;;5042258;28;20124;-72
2021/08/17 07:22:47;;;;;;;10.00;6.00;;;13.50;99.90;;;;;;5042881;28;20072;-71
2021/08/17 07:25:14;;;;;;;8.65;5.10;;;13.60;99.90;;;;;;5031987;28;20028;-72
2021/08/17 07:27:40;;;;;;;7.53;5.15;;;13.60;99.90;;;;;;5032435;28;20060;-72
2021/08/17 07:30:07;;;;;;;8.15;5.43;;;13.90;99.90;;;;;;5031600;28;20029;-72
2021/08/17 07:32:34;;;;;;;7.95;5.50;;;13.80;99.90;;;;;;5032711;28;20049;-71
2021/08/17 07:35:00;;;;;;;7.43;5.60;;;13.90;99.90;;;;;;5031879;28;20045;-74
2021/08/17 07:37:25;;;;;;;8.13;5.30;;;14.00;99.90;;;;;;5014217;28;20911;-72
2021/08/17 07:39:51;;;;;;;7.97;5.65;;;14.00;99.90;;;;;;5032334;28;20388;-71
2021/08/17 07:42:17;;;;;;;8.52;5.65;;;14.10;99.90;;;;;;5032423;28;20028;-71
2021/08/17 07:44:42;;;;;;;7.10;5.25;;;14.20;99.90;;;;;;5031350;28;20422;-71
2021/08/17 07:47:08;;;;;;;10.73;5.55;;;14.20;99.90;;;;;;5032225;28;20026;-71
2021/08/17 07:49:34;;;;;;;8.27;6.18;;;14.40;99.90;;;;;;5032058;28;20025;-71
2021/08/17 07:52:00;;;;;;;9.82;5.63;;;14.50;99.90;;;;;;5032246;28;20079;-72
2021/08/17 07:54:27;;;;;;;9.68;5.80;;;14.80;99.90;;;;;;5031206;28;20072;-70
2021/08/17 07:56:53;;;;;;;10.10;6.18;;;15.20;99.90;;;;;;5014198;28;20036;-70
2021/08/17 07:59:19;;;;;;;11.18;6.43;;;15.40;99.90;;;;;;5005654;28;20026;-71
2021/08/17 08:01:45;;;;;;;8.02;5.57;;;15.60;99.90;;;;;;5030067;28;20380;-72
2021/08/17 08:04:10;;;;;;;9.90;6.20;;;15.80;99.90;;;;;;5031800;28;20021;-73
2021/08/17 08:06:36;;;;;;;9.10;5.32;;;16.40;99.90;;;;;;5030635;28;20036;-72
2021/08/17 08:09:03;;;;;;;9.30;5.55;;;16.70;99.90;;;;;;5031137;28;20024;-71
2021/08/17 08:11:29;;;;;;;8.73;6.07;;;16.90;99.90;;;;;;5031656;28;20513;-72
2021/08/17 08:13:57;;;;;;;8.05;5.80;;;17.50;99.90;;;;;;5030919;28;20029;-72
2021/08/17 08:16:24;;;;;;;10.60;6.22;;;17.00;99.90;;;;;;5030672;28;20057;-71
2021/08/17 08:18:49;;;;;;;6.93;6.13;;;15.90;99.90;;;;;;5000502;28;20510;-72
2021/08/17 08:21:15;;;;;;;8.05;5.60;;;16.00;99.90;;;;;;5011843;28;20030;-73
2021/08/17 08:23:41;;;;;;;9.15;5.43;;;16.60;99.90;;;;;;5011905;28;20030;-71
2021/08/17 08:26:06;;;;;;;9.48;6.03;;;16.80;99.90;;;;;;4993585;28;20022;-72
2021/08/17 08:28:32;;;;;;;9.07;6.00;;;17.30;99.90;;;;;;5011433;28;20488;-73
2021/08/17 08:30:58;;;;;;;8.50;5.22;;;18.30;99.90;;;;;;5031107;28;20108;-73
2021/08/17 08:33:23;;;;;;;8.02;5.68;;;19.00;99.90;;;;;;5031875;28;20039;-73
2021/08/17 08:35:49;;;;;;;8.25;5.72;;;19.30;99.90;;;;;;5031094;28;20041;-73
2021/08/17 08:38:15;;;;;;;7.93;6.25;;;19.80;99.90;;;;;;5031241;28;20026;-72
2021/08/17 08:40:44;;;;;;;7.50;6.05;;;20.10;99.90;;;;;;5031206;28;20026;-73
2021/08/17 08:43:11;;;;;;;7.60;5.22;;;20.50;99.90;;;;;;5031444;28;20104;-74
2021/08/17 08:45:38;;;;;;;8.13;6.32;;;20.90;99.90;;;;;;5025001;28;20092;-73
2021/08/17 08:48:05;;;;;;;7.22;5.70;;;21.20;99.90;;;;;;5010554;28;20046;-73
2021/08/17 08:50:33;;;;;;;11.52;5.47;;;20.50;99.90;;;;;;5011223;28;20018;-74
2021/08/17 08:52:59;;;;;;;8.23;5.47;;;20.40;99.90;;;;;;5030874;28;20030;-71
2021/08/17 08:55:26;;;;;;;6.65;5.95;;;20.10;99.90;;;;;;5030242;28;20491;-73
2021/08/17 08:57:52;;;;;;;8.98;6.03;;;20.20;99.90;;;;;;5030495;28;20041;-72
2021/08/17 09:00:18;;;;;;;9.55;6.70;;;19.40;99.90;;;;;;5030680;28;20026;-72
2021/08/17 09:02:44;;;;;;;6.53;5.53;;;18.90;99.90;;;;;;5013378;28;20022;-71
2021/08/17 09:05:10;;;;;;;8.27;6.93;;;18.40;99.90;;;;;;5030214;28;20025;-73
2021/08/17 09:07:46;;;;;;;10.40;6.65;;;18.40;99.90;;;;;;5030971;28;20041;-72
2021/08/17 09:10:24;;;;;;;7.65;5.78;;;18.30;99.90;;;;;;5030779;28;20087;-73
2021/08/17 09:12:55;;;;;;;9.18;6.78;;;18.50;99.90;;;;;;5030855;28;20388;-71
2021/08/17 09:15:23;;;;;;;6.68;5.93;;;19.10;99.90;;;;;;5029092;28;20033;-73
2021/08/17 09:17:59;;;;;;;8.65;5.88;;;19.40;99.90;;;;;;5031306;28;20029;-74
2021/08/17 09:20:33;;;;;;;7.57;5.95;;;20.30;99.90;;;;;;5030872;28;20037;-71
2021/08/17 09:23:21;;;;;;;10.10;7.70;;;18.80;99.90;;;;;;5034980;28;20017;-72
2021/08/17 09:25:47;;;;;;;8.25;6.72;;;19.30;99.90;;;;;;5033935;28;20100;-72
2021/08/17 09:28:23;;;;;;;6.25;5.60;;;18.70;99.90;;;;;;5034484;28;20029;-72
2021/08/17 09:30:49;;;;;;;8.05;5.78;;;19.00;99.90;;;;;;5034469;28;20108;-72
2021/08/17 09:33:15;;;;;;;7.90;5.68;;;18.70;99.90;;;;;;5033986;28;20155;-73
2021/08/17 09:35:41;;;;;;;8.52;5.47;;;18.40;99.90;;;;;;5033406;28;20025;-72
2021/08/17 09:38:15;;;;;;;9.35;6.30;;;17.90;99.90;;;;;;5034508;28;20539;-72
2021/08/17 09:40:41;;;;;;;9.00;6.28;;;17.70;99.90;;;;;;5034397;28;20034;-71
2021/08/17 09:43:22;;;;;;;9.85;6.80;;;18.00;99.90;;;;;;5016904;28;20018;-72
2021/08/17 09:45:49;;;;;;;7.70;6.25;;;18.00;99.90;;;;;;5033540;28;20022;-71
2021/08/17 09:48:26;;;;;;;9.60;6.82;;;18.20;99.90;;;;;;5034404;28;20368;-74
2021/08/17 09:50:52;;;;;;;8.70;6.15;;;18.60;99.90;;;;;;5034581;28;20104;-72
2021/08/17 09:53:20;;;;;;;9.00;5.88;;;19.20;99.90;;;;;;5034533;28;20114;-73
2021/08/17 09:55:48;;;;;;;9.90;6.90;;;20.10;99.90;;;;;;5033093;28;20113;-73
2021/08/17 09:58:17;;;;;;;9.23;6.75;;;20.10;99.90;;;;;;5034307;28;20566;-71
2021/08/17 10:00:43;;;;;;;7.72;5.80;;;19.80;99.90;;;;;;5033525;28;20032;-73
2021/08/17 10:03:09;;;;;;;7.07;5.80;;;19.30;99.90;;;;;;5034322;28;20025;-71
2021/08/17 10:05:37;;;;;;;10.70;6.85;;;18.30;99.90;;;;;;5033561;28;20045;-71
2021/08/17 10:08:05;;;;;;;8.05;6.22;;;17.80;99.90;;;;;;5034480;28;20116;-70
2021/08/17 10:10:31;;;;;;;9.02;6.65;;;18.00;99.90;;;;;;5034175;28;20044;-70
2021/08/17 10:12:57;;;;;;;9.55;6.32;;;18.20;99.90;;;;;;5034018;28;20112;-70
2021/08/17 10:15:23;;;;;;;9.88;6.18;;;19.20;99.90;;;;;;5032581;28;20124;-70
2021/08/17 10:17:49;;;;;;;8.88;6.25;;;19.10;99.90;;;;;;5034060;28;20088;-70
2021/08/17 10:20:17;;;;;;;9.68;6.47;;;19.00;99.90;;;;;;5033565;28;20437;-70
2021/08/17 10:22:44;;;;;;;9.95;6.85;;;18.60;99.90;;;;;;5034003;28;20025;-71
2021/08/17 10:25:17;;;;;;;7.68;6.40;;;19.10;99.90;;;;;;5032977;28;20108;-71
2021/08/17 10:27:43;;;;;;;8.52;6.78;;;18.90;99.90;;;;;;5033805;28;20025;-71
2021/08/17 10:30:21;;;;;;;7.68;5.72;;;19.40;99.90;;;;;;5033444;28;20364;-72
2021/08/17 10:32:58;;;;;;;9.02;5.97;;;20.00;99.90;;;;;;5032364;28;20112;-73
2021/08/17 10:35:27;;;;;;;7.65;5.72;;;20.50;99.90;;;;;;5032819;28;20108;-72
2021/08/17 10:38:10;;;;;;;8.63;6.05;;;21.20;99.90;;;;;;5033598;28;20029;-71
2021/08/17 10:40:51;;;;;;;7.43;6.60;;;22.50;98.80;;;;;;5016311;28;20025;-71
2021/08/17 10:43:19;;;;;;;6.97;5.32;;;22.30;98.40;;;;;;5033302;28;20399;-71
2021/08/17 10:45:53;;;;;;;9.27;6.45;;;21.90;98.60;;;;;;5013875;28;20120;-71
2021/08/17 10:48:43;;;;;;;7.50;6.03;;;21.40;99.30;;;;;;5033228;28;20076;-71
2021/08/17 10:51:18;;;;;;;8.05;6.00;;;20.90;99.60;;;;;;5033404;28;20041;-73
2021/08/17 10:53:45;;;;;;;7.72;5.93;;;20.70;99.60;;;;;;5033484;28;20026;-72
2021/08/17 10:56:12;;;;;;;8.32;6.70;;;20.70;99.50;;;;;;5032150;28;20034;-72
2021/08/17 10:58:43;;;;;;;7.28;6.15;;;20.40;99.90;;;;;;5032846;28;20034;-72
2021/08/17 11:01:09;;;;;;;8.97;6.20;;;20.90;99.90;;;;;;5032900;28;20021;-73
2021/08/17 11:03:49;;;;;;;7.65;6.45;;;21.60;99.00;;;;;;5032129;28;20295;-72
2021/08/17 11:06:39;;;;;;;7.25;5.90;;;21.20;99.90;;;;;;5032303;28;20502;-72
2021/08/17 11:09:13;;;;;;;5.85;5.10;;;21.50;98.10;;;;;;5012187;28;20067;-73
2021/08/17 11:11:40;;;;;;;7.20;6.50;;;21.30;96.60;;;;;;5032185;28;20079;-74
2021/08/17 11:14:09;;;;;;;7.45;5.35;;;21.20;98.70;;;;;;5014841;28;20025;-71
2021/08/17 11:16:49;;;;;;;6.82;5.93;;;21.30;97.70;;;;;;5031666;28;20038;-71
2021/08/17 11:19:15;;;;;;;7.97;6.55;;;22.20;98.30;;;;;;5014538;28;20029;-71
2021/08/17 11:21:47;;;;;;;6.50;5.80;;;24.00;96.00;;;;;;5032574;28;20391;-72
2021/08/17 11:24:14;;;;;;;;;;;25.70;94.30;;;;;;5032573;28;20079;-71
2021/08/17 11:26:43;;;;;;;9.70;5.07;;;25.80;90.10;;;;;;5024796;28;19978;-74
2021/08/17 11:29:24;;;;;;;6.90;6.00;;;25.10;90.70;;;;;;5032561;28;20018;-76
2021/08/17 11:31:50;;;;;;;6.25;5.63;;;24.20;91.30;;;;;;5026221;28;20025;-75
2021/08/17 11:34:22;;;;;;;7.00;6.03;;;24.10;93.80;;;;;;5021058;28;20028;-74
2021/08/17 11:37:09;;;;;;;6.40;5.78;;;24.50;91.50;;;;;;5019280;28;20034;-75
2021/08/17 11:39:38;;;;;;;6.85;5.15;;;25.10;89.60;;;;;;5019430;28;20037;-74
2021/08/17 11:42:20;;;;;;;5.53;4.95;;;25.40;87.10;;;;;;5019571;28;20432;-74
2021/08/17 11:44:49;;;;;;;6.60;5.55;;;24.80;83.70;;;;;;5018657;28;20049;-75
2021/08/17 11:47:18;;;;;;;6.28;5.38;;;23.80;88.60;;;;;;5023580;28;20044;-74
2021/08/17 11:49:46;;;;;;;7.32;5.90;;;23.20;90.40;;;;;;5020926;28;20685;-76
2021/08/17 11:52:13;;;;;;;7.28;5.43;;;23.30;90.90;;;;;;5019665;28;20164;-74
2021/08/17 11:54:49;;;;;;;7.07;5.68;;;24.10;91.30;;;;;;5023841;28;20569;-76
2021/08/17 11:57:25;;;;;;;7.30;5.32;;;24.90;88.80;;;;;;5022192;28;20021;-78
2021/08/17 11:59:51;;;;;;;6.10;5.32;;;25.40;88.70;;;;;;5019572;28;20033;-77
2021/08/17 12:02:27;;;;;;;5.88;5.20;;;25.20;90.10;;;;;;5023070;28;20066;-77
2021/08/17 12:04:56;;;;;;;7.85;5.82;;;26.70;82.00;;;;;;5019478;28;20029;-76
2021/08/17 12:07:22;;;;;;;6.05;5.45;;;26.70;77.30;;;;;;5020547;28;20048;-75
2021/08/17 12:09:49;;;;;;;7.93;5.85;;;25.80;82.30;;;;;;5019831;28;20018;-76
2021/08/17 12:12:17;;;;;;;7.60;5.40;;;23.30;84.90;;;;;;5014553;28;20113;-76
2021/08/17 12:14:44;;;;;;;6.20;5.60;;;23.10;90.30;;;;;;5030834;28;20026;-76
2021/08/17 12:17:19;;;;;;;4.97;4.53;;;23.10;89.50;;;;;;5031161;28;20022;-73
2021/08/17 12:19:48;;;;;;;6.40;5.18;;;23.20;89.60;;;;;;5031729;28;20135;-75
2021/08/17 12:22:28;;;;;;;5.55;5.05;;;22.50;89.90;;;;;;5011943;28;20052;-73
2021/08/17 12:24:54;;;;;;;6.82;5.05;;;22.70;92.20;;;;;;5022725;28;20056;-78
2021/08/17 12:27:27;;;;;;;4.93;4.43;;;23.50;92.10;;;;;;5031233;28;20037;-79
2021/08/17 12:29:54;;;;;;;5.80;4.82;;;24.90;87.30;;;;;;5027726;28;20025;-78
2021/08/17 12:32:28;;;;;;;4.78;4.38;;;25.10;86.60;;;;;;5023551;28;20537;-76
2021/08/17 12:35:01;;;;;;;5.82;4.50;;;26.20;86.60;;;;;;5018942;28;20036;-75
2021/08/17 12:37:37;;;;;;;4.80;4.18;;;27.00;84.20;;;;;;5020694;28;20041;-77
2021/08/17 12:40:10;;;;;;;5.55;4.35;;;27.30;79.70;;;;;;5002015;28;20444;-75
2021/08/17 12:42:44;;;;;;;4.80;4.00;;;26.50;81.90;;;;;;5003378;28;20025;-75
2021/08/17 12:45:30;;;;;;;4.93;4.10;;;25.50;82.30;;;;;;5018786;28;20105;-75